METAR Data
IDs: Format: Raw Decoded Include TAF

Data at: 0231 UTC 19 Oct 2021

K4M9 190215Z AUTO 14004KT 6SM HZ CLR 13/10 A3013 RMK AO2 PWINO
K4M9 190155Z AUTO 15003KT 6SM HZ CLR 13/10 A3013 RMK AO2 PWINO
K4M9 190135Z AUTO 15005KT 6SM HZ CLR 14/10 A3013 RMK AO2 PWINO
K4M9 190115Z AUTO 14004KT 6SM HZ CLR 13/10 A3012 RMK AO2 PWINO
K4M9 190055Z AUTO 13005KT 5SM HZ CLR 13/11 A3012 RMK AO2 PWINO
K4M9 190035Z AUTO 13005KT 4SM HZ CLR 14/11 A3012 RMK AO2 PWINO
K4M9 190015Z AUTO 14005KT 6SM HZ CLR 15/11 A3012 RMK AO2 PWINO
K4M9 182355Z AUTO 15007KT 6SM HZ CLR 16/10 A3012 RMK AO2 PWINO
K4M9 182335Z AUTO 14007KT 6SM HZ CLR 17/10 A3012 RMK AO2 PWINO
K4M9 182315Z AUTO 15006KT 6SM HZ CLR 19/10 A3012 RMK AO2 PWINO
K4M9 182255Z AUTO 16004KT 2 1/2SM HZ CLR 20/09 A3012 RMK AO2 PWINO
K4M9 182235Z AUTO 17005KT 2 1/2SM HZ CLR 21/08 A3012 RMK AO2 PWINO
K4M9 182215Z AUTO 19006KT 2 1/2SM HZ CLR 22/08 A3012 RMK AO2 VIS 2 1/2V3 PWINO
K4M9 182155Z AUTO 17006KT 2 1/2SM HZ CLR 22/07 A3013 RMK AO2 PWINO
K4M9 182135Z AUTO 16006KT 3SM HZ CLR 22/08 A3013 RMK AO2 PWINO
K4M9 182115Z AUTO 16005KT 4SM HZ CLR 22/07 A3013 RMK AO2 PWINO
K4M9 182055Z AUTO 16004G10KT 4SM HZ CLR 22/07 A3014 RMK AO2 PWINO
K4M9 182035Z AUTO VRB06KT 2 1/2SM HZ CLR 23/08 A3014 RMK AO2 PWINO
K4M9 182015Z AUTO VRB04G11KT 3SM HZ CLR 22/07 A3015 RMK AO2 PWINO
K4M9 181955Z AUTO VRB06KT 2 1/2SM HZ CLR 22/07 A3015 RMK AO2 PWINO
K4M9 181935Z AUTO 19005G11KT 3SM HZ CLR 22/07 A3015 RMK AO2 PWINO
K4M9 181915Z AUTO VRB05G11KT 2 1/2SM HZ CLR 22/08 A3016 RMK AO2 PWINO
K4M9 181855Z AUTO 00000G10KT 3SM HZ CLR 22/08 A3017 RMK AO2 PWINO
K4M9 181835Z AUTO 23008KT 3SM HZ CLR 22/08 A3019 RMK AO2 PWINO
K4M9 181815Z AUTO 17008KT 3SM HZ CLR 21/08 A3020 RMK AO2 PWINO
K4M9 181755Z AUTO 19007KT 2 1/2SM HZ CLR 21/08 A3021 RMK AO2 PWINO
K4M9 181735Z AUTO 23006KT 3SM HZ CLR 21/08 A3022 RMK AO2 PWINO
K4M9 181715Z AUTO 17008KT 4SM HZ CLR 20/08 A3023 RMK AO2 PWINO
K4M9 181655Z AUTO 20005G11KT 3SM HZ CLR 20/09 A3023 RMK AO2 PWINO
K4M9 181635Z AUTO 23007KT 4SM HZ CLR 20/08 A3024 RMK AO2 PWINO
K4M9 181615Z AUTO 21006KT 4SM HZ CLR 19/09 A3025 RMK AO2 PWINO
K4M9 181555Z AUTO 21005KT 3SM HZ CLR 18/10 A3025 RMK AO2 PWINO
K4M9 181535Z AUTO 21004KT 2 1/2SM HZ CLR 17/11 A3025 RMK AO2 PWINO
K4M9 181515Z AUTO 00000KT 2SM HZ CLR 15/11 A3025 RMK AO2 PWINO
K4M9 181455Z AUTO 00000KT 2SM HZ CLR 14/11 A3025 RMK AO2 PWINO
K4M9 181435Z AUTO 00000KT 1 3/4SM BR CLR 12/11 A3025 RMK AO2 PWINO
K4M9 181415Z AUTO 00000KT 1 1/2SM BR CLR 11/11 A3025 RMK AO2 PWINO
K4M9 181335Z AUTO 00000KT 2SM BR CLR 09/09 A3024 RMK AO2 PWINO
K4M9 181315Z AUTO 00000KT 1 1/2SM BR CLR 08/08 A3023 RMK AO2 PWINO
K4M9 181255Z AUTO 00000KT 1 1/2SM BR CLR 07/07 A3023 RMK AO2 PWINO
K4M9 181235Z AUTO 00000KT 1 1/4SM BR CLR 06/06 A3022 RMK AO2 PWINO
K4M9 181115Z AUTO 00000KT 2 1/2SM BR CLR 06/06 A3021 RMK AO2 PWINO
K4M9 181035Z AUTO 00000KT 2 1/2SM BR CLR 07/07 A3020 RMK AO2 PWINO
K4M9 180935Z AUTO 00000KT 3SM BR CLR 07/07 A3019 RMK AO2 PWINO
K4M9 180915Z AUTO 00000KT 3SM BR CLR 08/08 A3019 RMK AO2 PWINO
K4M9 180855Z AUTO 00000KT 3SM BR CLR 08/08 A3019 RMK AO2 PWINO
K4M9 180835Z AUTO 00000KT 3SM BR CLR 08/08 A3019 RMK AO2 PWINO
K4M9 180815Z AUTO 00000KT 2 1/2SM BR CLR 08/08 A3020 RMK AO2 PWINO
K4M9 180755Z AUTO 00000KT 3SM BR CLR 08/08 A3020 RMK AO2 PWINO
K4M9 180735Z AUTO 00000KT 4SM BR CLR 08/08 A3020 RMK AO2 PWINO
K4M9 180715Z AUTO 00000KT 4SM BR CLR 08/08 A3021 RMK AO2 PWINO
K4M9 180655Z AUTO 00000KT 7SM CLR 09/09 A3021 RMK AO2 PWINO
K4M9 180635Z AUTO 00000KT 8SM CLR 09/09 A3021 RMK AO2 PWINO
K4M9 180615Z AUTO 00000KT 7SM CLR 09/09 A3021 RMK AO2 PWINO
K4M9 180555Z AUTO 00000KT 8SM CLR 09/09 A3021 RMK AO2 PWINO
K4M9 180535Z AUTO 00000KT 8SM CLR 10/10 A3021 RMK AO2 PWINO
K4M9 180515Z AUTO 00000KT 9SM CLR 10/10 A3022 RMK AO2 PWINO
K4M9 180455Z AUTO 00000KT 9SM CLR 11/11 A3022 RMK AO2 PWINO
K4M9 180435Z AUTO 00000KT 9SM CLR 11/11 A3022 RMK AO2 PWINO
K4M9 180415Z AUTO 00000KT 9SM CLR 11/11 A3022 RMK AO2 PWINO
K4M9 180355Z AUTO 00000KT 8SM CLR 11/11 A3023 RMK AO2 PWINO
K4M9 180335Z AUTO 00000KT 7SM CLR 10/10 A3023 RMK AO2 PWINO
K4M9 180315Z AUTO 00000KT 9SM CLR 11/11 A3023 RMK AO2 PWINO
K4M9 180255Z AUTO 00000KT 8SM CLR 11/11 A3023 RMK AO2 PWINO
K4M9 180235Z AUTO 00000KT 7SM CLR 11/11 A3023 RMK AO2 PWINO
K4M9 180215Z AUTO 18003KT 8SM CLR 11/11 A3022 RMK AO2 PWINO
K4M9 180155Z AUTO 00000KT 7SM CLR 12/12 A3022 RMK AO2 PWINO
K4M9 180115Z AUTO 15004KT 7SM CLR 13/12 A3021 RMK AO2 PWINO
K4M9 180055Z AUTO 00000KT 6SM BR CLR 14/12 A3021 RMK AO2 PWINO
K4M9 180035Z AUTO 00000KT 5SM HZ CLR 14/12 A3021 RMK AO2 PWINO
K4M9 180015Z AUTO 00000KT 5SM HZ CLR 15/11 A3020 RMK AO2 PWINO
K4M9 172355Z AUTO 00000KT 6SM HZ CLR 16/09 A3020 RMK AO2 PWINO
K4M9 172335Z AUTO 18004KT 5SM HZ CLR 17/09 A3020 RMK AO2 PWINO
K4M9 172315Z AUTO 18003KT 5SM HZ CLR 19/08 A3020 RMK AO2 PWINO
K4M9 172255Z AUTO 22003KT 2 1/2SM HZ CLR 20/07 A3021 RMK AO2 PWINO
K4M9 172235Z AUTO 00000KT 3SM HZ CLR 21/05 A3021 RMK AO2 PWINO
K4M9 172215Z AUTO 00000KT 2SM HZ CLR 21/05 A3021 RMK AO2 PWINO
K4M9 172155Z AUTO 27004KT 1 3/4SM HZ CLR 21/05 A3021 RMK AO2 PWINO
K4M9 172135Z AUTO VRB03KT 3SM HZ CLR 21/05 A3021 RMK AO2 PWINO
K4M9 172035Z AUTO VRB03KT 2 1/2SM HZ CLR 21/05 A3022 RMK AO2 PWINO
K4M9 172015Z AUTO VRB04KT 3SM HZ CLR 21/06 A3023 RMK AO2 PWINO
K4M9 171955Z AUTO 00000KT 2 1/2SM HZ CLR 21/06 A3023 RMK AO2 PWINO
K4M9 171935Z AUTO 00000KT 2SM HZ CLR 21/05 A3024 RMK AO2 VIS 1 1/4V3 PWINO
K4M9 171915Z AUTO 00000KT 2SM HZ CLR 21/05 A3025 RMK AO2 VIS 1V5 PWINO
K4M9 171855Z AUTO 00000KT 1 1/2SM HZ CLR 21/05 A3025 RMK AO2 PWINO
K4M9 171835Z AUTO VRB05KT 3SM HZ CLR 20/05 A3027 RMK AO2 PWINO
K4M9 171815Z AUTO 00000KT 4SM HZ CLR 20/05 A3028 RMK AO2 PWINO
K4M9 171755Z AUTO VRB04KT 5SM HZ CLR 20/05 A3029 RMK AO2 PWINO
K4M9 171735Z AUTO VRB05KT 5SM HZ CLR 19/05 A3029 RMK AO2 PWINO
K4M9 171715Z AUTO 26004KT 4SM HZ CLR 19/06 A3030 RMK AO2 PWINO
K4M9 171655Z AUTO VRB03KT 3SM HZ CLR 19/06 A3031 RMK AO2 PWINO
K4M9 171635Z AUTO VRB05KT 6SM HZ CLR 18/06 A3031 RMK AO2 PWINO
K4M9 171615Z AUTO 29003KT 6SM HZ CLR 17/06 A3032 RMK AO2 PWINO
K4M9 171555Z AUTO VRB03KT 6SM HZ CLR 16/07 A3032 RMK AO2 PWINO
K4M9 171535Z AUTO 31005KT 5SM HZ CLR 15/08 A3032 RMK AO2 PWINO
K4M9 171515Z AUTO 29004KT 5SM HZ CLR 14/08 A3032 RMK AO2 PWINO